sensor_id;sensor_type;location;lat;lon;timestamp;temperature;humidity
9564;DHT22;4820;50.870;4.702;2022-12-24T00:01:24;11.60;99.90
9564;DHT22;4820;50.870;4.702;2022-12-24T00:03:49;11.60;99.90
9564;DHT22;4820;50.870;4.702;2022-12-24T00:06:20;11.70;99.90
9564;DHT22;4820;50.870;4.702;2022-12-24T00:08:47;11.70;99.90
9564;DHT22;4820;50.870;4.702;2022-12-24T00:11:12;11.60;99.90
9564;DHT22;4820;50.870;4.702;2022-12-24T00:13:38;11.60;99.90
9564;DHT22;4820;50.870;4.702;2022-12-24T00:16:05;11.60;99.90
9564;DHT22;4820;50.870;4.702;2022-12-24T00:18:31;11.50;99.90
9564;DHT22;4820;50.870;4.702;2022-12-24T00:20:56;11.50;99.90
9564;DHT22;4820;50.870;4.702;2022-12-24T00:23:22;11.50;99.90
9564;DHT22;4820;50.870;4.702;2022-12-24T00:25:49;11.40;99.90
9564;DHT22;4820;50.870;4.702;2022-12-24T00:28:18;11.40;99.90
9564;DHT22;4820;50.870;4.702;2022-12-24T00:30:44;11.40;99.90
9564;DHT22;4820;50.870;4.702;2022-12-24T00:33:10;11.30;99.90
9564;DHT22;4820;50.870;4.702;2022-12-24T00:35:36;11.30;99.90
9564;DHT22;4820;50.870;4.702;2022-12-24T00:38:02;11.30;99.90
9564;DHT22;4820;50.870;4.702;2022-12-24T00:40:29;11.30;99.90
9564;DHT22;4820;50.870;4.702;2022-12-24T00:42:56;11.30;99.90
9564;DHT22;4820;50.870;4.702;2022-12-24T00:45:21;11.30;99.90
9564;DHT22;4820;50.870;4.702;2022-12-24T00:47:47;11.40;99.90
9564;DHT22;4820;50.870;4.702;2022-12-24T00:50:13;11.40;99.90
9564;DHT22;4820;50.870;4.702;2022-12-24T00:52:39;11.40;99.90
9564;DHT22;4820;50.870;4.702;2022-12-24T00:55:05;11.30;99.90
9564;DHT22;4820;50.870;4.702;2022-12-24T00:57:31;11.30;99.90
9564;DHT22;4820;50.870;4.702;2022-12-24T00:59:57;11.20;99.90
9564;DHT22;4820;50.870;4.702;2022-12-24T01:02:22;11.10;99.90
9564;DHT22;4820;50.870;4.702;2022-12-24T01:04:48;11.10;99.90
9564;DHT22;4820;50.870;4.702;2022-12-24T01:07:32;11.00;99.90
9564;DHT22;4820;50.870;4.702;2022-12-24T01:09:58;11.00;99.90
9564;DHT22;4820;50.870;4.702;2022-12-24T01:12:24;11.00;99.90
9564;DHT22;4820;50.870;4.702;2022-12-24T01:14:50;11.00;99.90
9564;DHT22;4820;50.870;4.702;2022-12-24T01:17:16;11.00;99.90
9564;DHT22;4820;50.870;4.702;2022-12-24T01:19:42;10.90;99.90
9564;DHT22;4820;50.870;4.702;2022-12-24T01:22:07;10.90;99.90
9564;DHT22;4820;50.870;4.702;2022-12-24T01:24:33;10.90;99.90
9564;DHT22;4820;50.870;4.702;2022-12-24T01:26:59;10.90;99.90
9564;DHT22;4820;50.870;4.702;2022-12-24T01:29:25;10.90;99.90
9564;DHT22;4820;50.870;4.702;2022-12-24T01:31:50;10.90;99.90
9564;DHT22;4820;50.870;4.702;2022-12-24T01:34:16;10.90;99.90
9564;DHT22;4820;50.870;4.702;2022-12-24T01:36:42;10.90;99.90
9564;DHT22;4820;50.870;4.702;2022-12-24T01:39:07;10.90;99.90
9564;DHT22;4820;50.870;4.702;2022-12-24T01:41:33;10.80;99.90
9564;DHT22;4820;50.870;4.702;2022-12-24T01:44:19;10.90;99.90
9564;DHT22;4820;50.870;4.702;2022-12-24T01:46:45;10.80;99.90
9564;DHT22;4820;50.870;4.702;2022-12-24T01:49:13;10.80;99.90
9564;DHT22;4820;50.870;4.702;2022-12-24T01:51:47;10.80;99.90
9564;DHT22;4820;50.870;4.702;2022-12-24T01:54:23;10.80;99.90
9564;DHT22;4820;50.870;4.702;2022-12-24T01:56:56;10.80;99.90
9564;DHT22;4820;50.870;4.702;2022-12-24T01:59:23;10.80;99.90
9564;DHT22;4820;50.870;4.702;2022-12-24T02:01:49;10.70;99.90
9564;DHT22;4820;50.870;4.702;2022-12-24T02:04:31;10.60;99.90
9564;DHT22;4820;50.870;4.702;2022-12-24T02:06:58;10.70;99.90
9564;DHT22;4820;50.870;4.702;2022-12-24T02:09:26;10.70;99.90
9564;DHT22;4820;50.870;4.702;2022-12-24T02:11:55;10.70;99.90
9564;DHT22;4820;50.870;4.702;2022-12-24T02:14:21;10.70;99.90
9564;DHT22;4820;50.870;4.702;2022-12-24T02:30:55;10.70;99.90
9564;DHT22;4820;50.870;4.702;2022-12-24T02:33:30;10.70;99.90
9564;DHT22;4820;50.870;4.702;2022-12-24T02:36:43;10.70;99.90
9564;DHT22;4820;50.870;4.702;2022-12-24T02:39:18;10.60;99.90
9564;DHT22;4820;50.870;4.702;2022-12-24T02:41:49;10.60;99.90
9564;DHT22;4820;50.870;4.702;2022-12-24T02:44:46;10.70;99.90
9564;DHT22;4820;50.870;4.702;2022-12-24T02:47:13;10.60;99.90
9564;DHT22;4820;50.870;4.702;2022-12-24T02:49:44;10.70;99.90
9564;DHT22;4820;50.870;4.702;2022-12-24T02:52:33;10.70;99.90
9564;DHT22;4820;50.870;4.702;2022-12-24T02:55:04;10.70;99.90
9564;DHT22;4820;50.870;4.702;2022-12-24T03:03:37;10.80;99.90
9564;DHT22;4820;50.870;4.702;2022-12-24T03:06:08;10.90;99.90
9564;DHT22;4820;50.870;4.702;2022-12-24T03:11:12;10.90;99.90
9564;DHT22;4820;50.870;4.702;2022-12-24T03:13:42;11.00;99.90
9564;DHT22;4820;50.870;4.702;2022-12-24T03:16:11;11.10;99.90
9564;DHT22;4820;50.870;4.702;2022-12-24T03:18:40;11.00;99.90
9564;DHT22;4820;50.870;4.702;2022-12-24T03:21:11;11.10;99.90
9564;DHT22;4820;50.870;4.702;2022-12-24T03:23:38;11.00;99.90
9564;DHT22;4820;50.870;4.702;2022-12-24T03:26:06;11.00;99.90
9564;DHT22;4820;50.870;4.702;2022-12-24T03:28:34;11.00;99.90
9564;DHT22;4820;50.870;4.702;2022-12-24T03:31:04;11.00;99.90
9564;DHT22;4820;50.870;4.702;2022-12-24T03:33:30;11.00;99.90
9564;DHT22;4820;50.870;4.702;2022-12-24T03:35:56;11.00;99.90
9564;DHT22;4820;50.870;4.702;2022-12-24T03:38:22;11.00;99.90
9564;DHT22;4820;50.870;4.702;2022-12-24T03:40:48;11.00;99.90
9564;DHT22;4820;50.870;4.702;2022-12-24T03:43:13;10.90;99.90
9564;DHT22;4820;50.870;4.702;2022-12-24T03:45:40;10.90;99.90
9564;DHT22;4820;50.870;4.702;2022-12-24T03:48:06;10.80;99.90
9564;DHT22;4820;50.870;4.702;2022-12-24T03:50:32;10.80;99.90
9564;DHT22;4820;50.870;4.702;2022-12-24T03:52:57;10.80;99.90
9564;DHT22;4820;50.870;4.702;2022-12-24T03:55:23;10.80;99.90
9564;DHT22;4820;50.870;4.702;2022-12-24T03:57:49;10.70;99.90
9564;DHT22;4820;50.870;4.702;2022-12-24T04:00:15;10.70;99.90
9564;DHT22;4820;50.870;4.702;2022-12-24T04:02:41;10.70;99.90
9564;DHT22;4820;50.870;4.702;2022-12-24T04:05:10;10.70;99.90
9564;DHT22;4820;50.870;4.702;2022-12-24T04:07:38;10.70;99.90
9564;DHT22;4820;50.870;4.702;2022-12-24T04:10:04;10.70;99.90
9564;DHT22;4820;50.870;4.702;2022-12-24T04:12:30;10.70;99.90
9564;DHT22;4820;50.870;4.702;2022-12-24T04:14:56;10.70;99.90
9564;DHT22;4820;50.870;4.702;2022-12-24T04:17:21;10.70;99.90
9564;DHT22;4820;50.870;4.702;2022-12-24T04:19:47;10.60;99.90
9564;DHT22;4820;50.870;4.702;2022-12-24T04:22:12;10.60;99.90
9564;DHT22;4820;50.870;4.702;2022-12-24T04:24:38;10.60;99.90
9564;DHT22;4820;50.870;4.702;2022-12-24T04:27:04;10.60;99.90
9564;DHT22;4820;50.870;4.702;2022-12-24T04:29:29;10.70;99.90
9564;DHT22;4820;50.870;4.702;2022-12-24T04:31:55;10.70;99.90
9564;DHT22;4820;50.870;4.702;2022-12-24T04:34:20;10.70;99.90
9564;DHT22;4820;50.870;4.702;2022-12-24T04:36:46;10.70;99.90
9564;DHT22;4820;50.870;4.702;2022-12-24T04:39:12;10.80;99.90
9564;DHT22;4820;50.870;4.702;2022-12-24T04:41:37;10.80;99.90
9564;DHT22;4820;50.870;4.702;2022-12-24T04:44:03;10.80;99.90
9564;DHT22;4820;50.870;4.702;2022-12-24T04:46:29;10.90;99.90
9564;DHT22;4820;50.870;4.702;2022-12-24T04:48:55;10.90;99.90
9564;DHT22;4820;50.870;4.702;2022-12-24T04:51:22;10.90;99.90
9564;DHT22;4820;50.870;4.702;2022-12-24T04:53:48;10.90;99.90
9564;DHT22;4820;50.870;4.702;2022-12-24T04:56:22;10.90;99.90
9564;DHT22;4820;50.870;4.702;2022-12-24T04:58:48;10.90;99.90
9564;DHT22;4820;50.870;4.702;2022-12-24T05:01:23;10.90;99.90
9564;DHT22;4820;50.870;4.702;2022-12-24T05:03:50;10.90;99.90
9564;DHT22;4820;50.870;4.702;2022-12-24T05:06:19;10.90;99.90
9564;DHT22;4820;50.870;4.702;2022-12-24T05:08:45;10.90;99.90
9564;DHT22;4820;50.870;4.702;2022-12-24T05:11:11;10.90;99.90
9564;DHT22;4820;50.870;4.702;2022-12-24T05:13:44;10.90;99.90
9564;DHT22;4820;50.870;4.702;2022-12-24T05:16:11;10.90;99.90
9564;DHT22;4820;50.870;4.702;2022-12-24T05:18:37;10.90;99.90
9564;DHT22;4820;50.870;4.702;2022-12-24T05:21:10;10.80;99.90
9564;DHT22;4820;50.870;4.702;2022-12-24T05:23:37;10.90;99.90
9564;DHT22;4820;50.870;4.702;2022-12-24T05:26:50;10.90;99.90
9564;DHT22;4820;50.870;4.702;2022-12-24T05:29:17;10.90;99.90
9564;DHT22;4820;50.870;4.702;2022-12-24T05:31:43;11.00;99.90
9564;DHT22;4820;50.870;4.702;2022-12-24T05:34:10;10.90;99.90
9564;DHT22;4820;50.870;4.702;2022-12-24T05:36:37;10.90;99.90
9564;DHT22;4820;50.870;4.702;2022-12-24T05:39:03;10.90;99.90
9564;DHT22;4820;50.870;4.702;2022-12-24T05:41:29;10.90;99.90
9564;DHT22;4820;50.870;4.702;2022-12-24T05:43:55;10.80;99.90
9564;DHT22;4820;50.870;4.702;2022-12-24T05:46:21;10.80;99.90
9564;DHT22;4820;50.870;4.702;2022-12-24T05:48:48;10.70;99.90
9564;DHT22;4820;50.870;4.702;2022-12-24T05:51:17;10.70;99.90
9564;DHT22;4820;50.870;4.702;2022-12-24T05:53:47;10.70;99.90
9564;DHT22;4820;50.870;4.702;2022-12-24T05:56:21;10.70;99.90
9564;DHT22;4820;50.870;4.702;2022-12-24T05:58:47;10.70;99.90
9564;DHT22;4820;50.870;4.702;2022-12-24T06:01:14;10.70;99.90
9564;DHT22;4820;50.870;4.702;2022-12-24T06:03:40;10.70;99.90
9564;DHT22;4820;50.870;4.702;2022-12-24T06:06:08;10.70;99.90
9564;DHT22;4820;50.870;4.702;2022-12-24T06:08:37;10.70;99.90
9564;DHT22;4820;50.870;4.702;2022-12-24T06:11:05;10.60;99.90
9564;DHT22;4820;50.870;4.702;2022-12-24T06:13:31;10.60;99.90
9564;DHT22;4820;50.870;4.702;2022-12-24T06:15:59;10.60;99.90
9564;DHT22;4820;50.870;4.702;2022-12-24T06:18:27;10.60;99.90
9564;DHT22;4820;50.870;4.702;2022-12-24T06:20:54;10.70;99.90
9564;DHT22;4820;50.870;4.702;2022-12-24T06:23:20;10.70;99.90
9564;DHT22;4820;50.870;4.702;2022-12-24T06:25:47;10.70;99.90
9564;DHT22;4820;50.870;4.702;2022-12-24T06:28:13;10.80;99.90
9564;DHT22;4820;50.870;4.702;2022-12-24T06:30:40;10.80;99.90
9564;DHT22;4820;50.870;4.702;2022-12-24T06:33:06;10.80;99.90
9564;DHT22;4820;50.870;4.702;2022-12-24T06:35:32;10.80;99.90
9564;DHT22;4820;50.870;4.702;2022-12-24T06:37:58;10.80;99.90
9564;DHT22;4820;50.870;4.702;2022-12-24T06:40:27;10.90;99.90
9564;DHT22;4820;50.870;4.702;2022-12-24T06:42:53;10.80;99.90
9564;DHT22;4820;50.870;4.702;2022-12-24T06:45:19;10.80;99.90
9564;DHT22;4820;50.870;4.702;2022-12-24T06:47:45;10.80;99.90
9564;DHT22;4820;50.870;4.702;2022-12-24T06:50:10;10.80;99.90
9564;DHT22;4820;50.870;4.702;2022-12-24T06:52:36;10.70;99.90
9564;DHT22;4820;50.870;4.702;2022-12-24T06:55:03;10.70;99.90
9564;DHT22;4820;50.870;4.702;2022-12-24T06:57:29;10.70;99.90
9564;DHT22;4820;50.870;4.702;2022-12-24T06:59:57;10.70;99.90
9564;DHT22;4820;50.870;4.702;2022-12-24T07:02:23;10.60;99.90
9564;DHT22;4820;50.870;4.702;2022-12-24T07:04:49;10.60;99.90
9564;DHT22;4820;50.870;4.702;2022-12-24T07:07:14;10.60;99.90
9564;DHT22;4820;50.870;4.702;2022-12-24T07:09:41;10.60;99.90
9564;DHT22;4820;50.870;4.702;2022-12-24T07:12:08;10.60;99.90
9564;DHT22;4820;50.870;4.702;2022-12-24T07:14:33;10.60;99.90
9564;DHT22;4820;50.870;4.702;2022-12-24T07:16:59;10.60;99.90
9564;DHT22;4820;50.870;4.702;2022-12-24T07:19:25;10.60;99.90
9564;DHT22;4820;50.870;4.702;2022-12-24T07:21:50;10.60;99.90
9564;DHT22;4820;50.870;4.702;2022-12-24T07:24:16;10.60;99.90
9564;DHT22;4820;50.870;4.702;2022-12-24T07:26:42;10.60;99.90
9564;DHT22;4820;50.870;4.702;2022-12-24T07:29:07;10.60;99.90
9564;DHT22;4820;50.870;4.702;2022-12-24T07:31:33;10.60;99.90
9564;DHT22;4820;50.870;4.702;2022-12-24T07:33:59;10.70;99.90
9564;DHT22;4820;50.870;4.702;2022-12-24T07:36:26;10.60;99.90
9564;DHT22;4820;50.870;4.702;2022-12-24T07:38:53;10.60;99.90
9564;DHT22;4820;50.870;4.702;2022-12-24T07:41:18;10.60;99.90
9564;DHT22;4820;50.870;4.702;2022-12-24T07:43:44;10.50;99.90
9564;DHT22;4820;50.870;4.702;2022-12-24T07:46:10;10.50;99.90
9564;DHT22;4820;50.870;4.702;2022-12-24T07:48:36;10.50;99.90
9564;DHT22;4820;50.870;4.702;2022-12-24T07:51:02;10.50;99.90
9564;DHT22;4820;50.870;4.702;2022-12-24T07:53:29;10.50;99.90
9564;DHT22;4820;50.870;4.702;2022-12-24T07:55:55;10.50;99.90
9564;DHT22;4820;50.870;4.702;2022-12-24T07:58:21;10.50;99.90
9564;DHT22;4820;50.870;4.702;2022-12-24T08:00:47;10.50;99.90
9564;DHT22;4820;50.870;4.702;2022-12-24T08:03:17;10.50;99.90
9564;DHT22;4820;50.870;4.702;2022-12-24T08:05:42;10.50;99.90
9564;DHT22;4820;50.870;4.702;2022-12-24T08:08:08;10.50;99.90
9564;DHT22;4820;50.870;4.702;2022-12-24T08:10:34;10.60;99.90
9564;DHT22;4820;50.870;4.702;2022-12-24T08:12:59;10.60;99.90
9564;DHT22;4820;50.870;4.702;2022-12-24T08:15:25;10.60;99.90
9564;DHT22;4820;50.870;4.702;2022-12-24T08:17:50;10.60;99.90
9564;DHT22;4820;50.870;4.702;2022-12-24T08:20:16;10.60;99.90
9564;DHT22;4820;50.870;4.702;2022-12-24T08:22:42;10.60;99.90
9564;DHT22;4820;50.870;4.702;2022-12-24T08:25:08;10.60;99.90
9564;DHT22;4820;50.870;4.702;2022-12-24T08:27:34;10.60;99.90
9564;DHT22;4820;50.870;4.702;2022-12-24T08:30:01;10.70;99.90
9564;DHT22;4820;50.870;4.702;2022-12-24T08:32:26;10.60;99.90
9564;DHT22;4820;50.870;4.702;2022-12-24T08:34:52;10.70;99.90
9564;DHT22;4820;50.870;4.702;2022-12-24T08:37:18;10.70;99.90
9564;DHT22;4820;50.870;4.702;2022-12-24T08:39:43;10.80;99.90
9564;DHT22;4820;50.870;4.702;2022-12-24T08:42:09;10.80;99.90
9564;DHT22;4820;50.870;4.702;2022-12-24T08:44:36;10.80;99.90
9564;DHT22;4820;50.870;4.702;2022-12-24T08:47:02;10.80;99.90
9564;DHT22;4820;50.870;4.702;2022-12-24T08:49:27;10.80;99.90
9564;DHT22;4820;50.870;4.702;2022-12-24T08:51:53;10.80;99.90
9564;DHT22;4820;50.870;4.702;2022-12-24T08:54:18;10.90;99.90
9564;DHT22;4820;50.870;4.702;2022-12-24T08:56:44;10.90;99.90
9564;DHT22;4820;50.870;4.702;2022-12-24T08:59:11;10.90;99.90
9564;DHT22;4820;50.870;4.702;2022-12-24T09:01:37;10.90;99.90
9564;DHT22;4820;50.870;4.702;2022-12-24T09:04:03;11.00;99.90
9564;DHT22;4820;50.870;4.702;2022-12-24T09:06:30;11.00;99.90
9564;DHT22;4820;50.870;4.702;2022-12-24T09:08:56;11.00;99.90
9564;DHT22;4820;50.870;4.702;2022-12-24T09:11:22;11.00;99.90
9564;DHT22;4820;50.870;4.702;2022-12-24T09:13:48;11.00;99.90
9564;DHT22;4820;50.870;4.702;2022-12-24T09:16:13;11.10;99.90
9564;DHT22;4820;50.870;4.702;2022-12-24T09:18:39;11.10;99.90
9564;DHT22;4820;50.870;4.702;2022-12-24T09:21:08;11.10;99.90
9564;DHT22;4820;50.870;4.702;2022-12-24T09:23:35;11.10;99.90
9564;DHT22;4820;50.870;4.702;2022-12-24T09:26:24;11.10;99.90
9564;DHT22;4820;50.870;4.702;2022-12-24T09:28:51;11.10;99.90
9564;DHT22;4820;50.870;4.702;2022-12-24T09:31:17;11.10;99.90
9564;DHT22;4820;50.870;4.702;2022-12-24T09:33:44;11.10;99.90
9564;DHT22;4820;50.870;4.702;2022-12-24T09:36:10;11.10;99.90
9564;DHT22;4820;50.870;4.702;2022-12-24T09:38:37;11.20;99.90
9564;DHT22;4820;50.870;4.702;2022-12-24T09:47:54;11.30;99.90
9564;DHT22;4820;50.870;4.702;2022-12-24T09:49:56;11.40;99.90
9564;DHT22;4820;50.870;4.702;2022-12-24T09:52:32;11.40;99.90
9564;DHT22;4820;50.870;4.702;2022-12-24T09:55:27;11.40;99.90
9564;DHT22;4820;50.870;4.702;2022-12-24T09:57:55;11.50;99.90
9564;DHT22;4820;50.870;4.702;2022-12-24T10:00:24;11.60;99.90
9564;DHT22;4820;50.870;4.702;2022-12-24T10:02:51;11.60;99.90
9564;DHT22;4820;50.870;4.702;2022-12-24T10:05:20;11.60;99.90
9564;DHT22;4820;50.870;4.702;2022-12-24T10:10:52;11.60;99.90
9564;DHT22;4820;50.870;4.702;2022-12-24T10:16:07;11.70;99.90
9564;DHT22;4820;50.870;4.702;2022-12-24T10:21:14;11.70;99.90
9564;DHT22;4820;50.870;4.702;2022-12-24T10:23:59;11.70;99.90
9564;DHT22;4820;50.870;4.702;2022-12-24T10:26:43;11.80;99.90
9564;DHT22;4820;50.870;4.702;2022-12-24T10:29:14;11.80;99.90
9564;DHT22;4820;50.870;4.702;2022-12-24T10:34:39;11.80;99.90
9564;DHT22;4820;50.870;4.702;2022-12-24T10:37:06;11.70;99.90
9564;DHT22;4820;50.870;4.702;2022-12-24T10:39:35;11.80;99.90
9564;DHT22;4820;50.870;4.702;2022-12-24T10:42:01;11.80;99.90
9564;DHT22;4820;50.870;4.702;2022-12-24T10:44:31;11.80;99.90
9564;DHT22;4820;50.870;4.702;2022-12-24T10:46:57;11.80;99.90
9564;DHT22;4820;50.870;4.702;2022-12-24T10:52:11;11.80;99.90
9564;DHT22;4820;50.870;4.702;2022-12-24T10:57:37;11.90;99.90
9564;DHT22;4820;50.870;4.702;2022-12-24T11:00:04;11.90;99.90
9564;DHT22;4820;50.870;4.702;2022-12-24T11:02:36;12.00;99.90
9564;DHT22;4820;50.870;4.702;2022-12-24T11:05:26;12.00;99.90
9564;DHT22;4820;50.870;4.702;2022-12-24T11:08:15;12.00;99.90
9564;DHT22;4820;50.870;4.702;2022-12-24T11:10:58;12.00;99.90
9564;DHT22;4820;50.870;4.702;2022-12-24T11:16:16;12.00;99.90
9564;DHT22;4820;50.870;4.702;2022-12-24T11:18:48;12.00;99.90
9564;DHT22;4820;50.870;4.702;2022-12-24T11:21:23;12.00;99.90
9564;DHT22;4820;50.870;4.702;2022-12-24T11:23:57;12.00;99.90
9564;DHT22;4820;50.870;4.702;2022-12-24T11:26:26;12.00;99.90
9564;DHT22;4820;50.870;4.702;2022-12-24T11:31:37;12.10;99.90
9564;DHT22;4820;50.870;4.702;2022-12-24T11:34:24;12.10;99.90
9564;DHT22;4820;50.870;4.702;2022-12-24T11:36:52;12.10;99.90
9564;DHT22;4820;50.870;4.702;2022-12-24T11:39:20;12.10;99.90
9564;DHT22;4820;50.870;4.702;2022-12-24T11:41:50;12.10;99.90
9564;DHT22;4820;50.870;4.702;2022-12-24T11:44:27;12.10;99.90
9564;DHT22;4820;50.870;4.702;2022-12-24T11:46:54;12.10;99.90
9564;DHT22;4820;50.870;4.702;2022-12-24T11:49:25;12.10;99.90
9564;DHT22;4820;50.870;4.702;2022-12-24T11:52:23;12.10;99.90
9564;DHT22;4820;50.870;4.702;2022-12-24T12:00:11;12.10;99.90
9564;DHT22;4820;50.870;4.702;2022-12-24T12:02:39;12.10;99.90
9564;DHT22;4820;50.870;4.702;2022-12-24T12:05:10;12.20;99.90
9564;DHT22;4820;50.870;4.702;2022-12-24T12:07:38;12.20;99.90
9564;DHT22;4820;50.870;4.702;2022-12-24T12:10:18;12.20;99.90
9564;DHT22;4820;50.870;4.702;2022-12-24T12:12:56;12.30;99.90
9564;DHT22;4820;50.870;4.702;2022-12-24T12:15:32;12.30;99.90
9564;DHT22;4820;50.870;4.702;2022-12-24T12:18:14;12.30;99.90
9564;DHT22;4820;50.870;4.702;2022-12-24T12:21:14;12.40;99.90
9564;DHT22;4820;50.870;4.702;2022-12-24T12:23:58;12.40;99.90
9564;DHT22;4820;50.870;4.702;2022-12-24T12:26:28;12.40;99.90
9564;DHT22;4820;50.870;4.702;2022-12-24T12:29:00;12.50;99.90
9564;DHT22;4820;50.870;4.702;2022-12-24T12:34:09;12.50;99.90
9564;DHT22;4820;50.870;4.702;2022-12-24T12:36:50;12.50;99.90
9564;DHT22;4820;50.870;4.702;2022-12-24T12:39:17;12.50;99.90
9564;DHT22;4820;50.870;4.702;2022-12-24T12:44:47;12.50;99.90
9564;DHT22;4820;50.870;4.702;2022-12-24T12:47:44;12.60;99.90
9564;DHT22;4820;50.870;4.702;2022-12-24T12:53:02;12.70;99.90
9564;DHT22;4820;50.870;4.702;2022-12-24T12:58:29;12.80;99.90
9564;DHT22;4820;50.870;4.702;2022-12-24T13:01:10;12.80;99.90
9564;DHT22;4820;50.870;4.702;2022-12-24T13:22:26;12.70;99.90
9564;DHT22;4820;50.870;4.702;2022-12-24T13:24:53;12.70;99.90
9564;DHT22;4820;50.870;4.702;2022-12-24T13:27:25;12.70;99.90
9564;DHT22;4820;50.870;4.702;2022-12-24T13:30:05;12.60;99.90
9564;DHT22;4820;50.870;4.702;2022-12-24T13:32:53;12.60;99.90
9564;DHT22;4820;50.870;4.702;2022-12-24T13:37:46;12.60;99.90
9564;DHT22;4820;50.870;4.702;2022-12-24T13:47:56;12.60;99.90
9564;DHT22;4820;50.870;4.702;2022-12-24T13:50:34;12.60;99.90
9564;DHT22;4820;50.870;4.702;2022-12-24T13:53:00;12.70;99.90
9564;DHT22;4820;50.870;4.702;2022-12-24T13:55:26;12.60;99.90
9564;DHT22;4820;50.870;4.702;2022-12-24T13:58:01;12.70;99.90
9564;DHT22;4820;50.870;4.702;2022-12-24T14:01:01;12.70;99.90
9564;DHT22;4820;50.870;4.702;2022-12-24T14:03:50;12.70;99.90
9564;DHT22;4820;50.870;4.702;2022-12-24T14:08:47;12.70;99.90
9564;DHT22;4820;50.870;4.702;2022-12-24T14:11:24;12.70;99.90
9564;DHT22;4820;50.870;4.702;2022-12-24T14:14:24;12.80;99.90
9564;DHT22;4820;50.870;4.702;2022-12-24T14:16:44;12.90;99.90
9564;DHT22;4820;50.870;4.702;2022-12-24T14:19:19;13.00;99.90
9564;DHT22;4820;50.870;4.702;2022-12-24T14:21:51;13.10;99.90
9564;DHT22;4820;50.870;4.702;2022-12-24T14:24:32;13.00;99.90
9564;DHT22;4820;50.870;4.702;2022-12-24T14:27:07;13.10;99.90
9564;DHT22;4820;50.870;4.702;2022-12-24T14:29:52;13.10;99.90
9564;DHT22;4820;50.870;4.702;2022-12-24T14:32:22;13.10;99.90
9564;DHT22;4820;50.870;4.702;2022-12-24T14:37:35;13.00;99.90
9564;DHT22;4820;50.870;4.702;2022-12-24T14:40:01;12.90;99.90
9564;DHT22;4820;50.870;4.702;2022-12-24T14:45:28;12.90;99.90
9564;DHT22;4820;50.870;4.702;2022-12-24T14:48:21;12.80;99.90
9564;DHT22;4820;50.870;4.702;2022-12-24T14:51:27;12.70;99.90
9564;DHT22;4820;50.870;4.702;2022-12-24T14:56:43;12.50;99.90
9564;DHT22;4820;50.870;4.702;2022-12-24T14:59:17;12.50;99.90
9564;DHT22;4820;50.870;4.702;2022-12-24T15:01:43;12.40;99.90
9564;DHT22;4820;50.870;4.702;2022-12-24T15:06:48;12.30;99.90
9564;DHT22;4820;50.870;4.702;2022-12-24T15:09:26;12.30;99.90
9564;DHT22;4820;50.870;4.702;2022-12-24T15:11:57;12.20;99.90
9564;DHT22;4820;50.870;4.702;2022-12-24T15:14:25;12.20;99.90
9564;DHT22;4820;50.870;4.702;2022-12-24T15:16:55;12.10;99.90
9564;DHT22;4820;50.870;4.702;2022-12-24T15:19:31;12.10;99.90
9564;DHT22;4820;50.870;4.702;2022-12-24T15:21:57;12.00;99.90
9564;DHT22;4820;50.870;4.702;2022-12-24T15:24:27;11.90;99.90
9564;DHT22;4820;50.870;4.702;2022-12-24T15:26:54;11.90;99.90
9564;DHT22;4820;50.870;4.702;2022-12-24T15:29:26;11.90;99.90
9564;DHT22;4820;50.870;4.702;2022-12-24T15:31:59;11.90;99.90
9564;DHT22;4820;50.870;4.702;2022-12-24T15:34:37;11.80;99.90
9564;DHT22;4820;50.870;4.702;2022-12-24T15:37:13;11.80;99.90
9564;DHT22;4820;50.870;4.702;2022-12-24T15:39:42;11.70;99.90
9564;DHT22;4820;50.870;4.702;2022-12-24T15:42:10;11.70;99.90
9564;DHT22;4820;50.870;4.702;2022-12-24T15:45:12;11.60;99.90
9564;DHT22;4820;50.870;4.702;2022-12-24T15:47:44;11.60;99.90
9564;DHT22;4820;50.870;4.702;2022-12-24T15:50:14;11.60;99.90
9564;DHT22;4820;50.870;4.702;2022-12-24T15:52:41;11.50;99.90
9564;DHT22;4820;50.870;4.702;2022-12-24T15:57:56;11.50;99.90
9564;DHT22;4820;50.870;4.702;2022-12-24T16:00:26;11.50;99.90
9564;DHT22;4820;50.870;4.702;2022-12-24T16:03:16;11.50;99.90
9564;DHT22;4820;50.870;4.702;2022-12-24T16:05:43;11.50;99.90
9564;DHT22;4820;50.870;4.702;2022-12-24T16:10:41;11.40;99.90
9564;DHT22;4820;50.870;4.702;2022-12-24T16:16:07;11.40;99.90
9564;DHT22;4820;50.870;4.702;2022-12-24T16:18:36;11.40;99.90
9564;DHT22;4820;50.870;4.702;2022-12-24T16:21:04;11.30;99.90
9564;DHT22;4820;50.870;4.702;2022-12-24T16:23:45;11.30;99.90
9564;DHT22;4820;50.870;4.702;2022-12-24T16:26:11;11.20;99.90
9564;DHT22;4820;50.870;4.702;2022-12-24T16:28:37;11.20;99.90
9564;DHT22;4820;50.870;4.702;2022-12-24T16:31:03;11.20;99.90
9564;DHT22;4820;50.870;4.702;2022-12-24T16:33:29;11.20;99.90
9564;DHT22;4820;50.870;4.702;2022-12-24T16:35:55;11.20;99.90
9564;DHT22;4820;50.870;4.702;2022-12-24T16:38:21;11.30;99.90
9564;DHT22;4820;50.870;4.702;2022-12-24T16:40:47;11.20;99.90
9564;DHT22;4820;50.870;4.702;2022-12-24T16:43:13;11.20;99.90
9564;DHT22;4820;50.870;4.702;2022-12-24T16:46:02;11.20;99.90
9564;DHT22;4820;50.870;4.702;2022-12-24T16:48:29;11.30;99.90
9564;DHT22;4820;50.870;4.702;2022-12-24T16:50:55;11.30;99.90
9564;DHT22;4820;50.870;4.702;2022-12-24T16:53:22;11.30;99.90
9564;DHT22;4820;50.870;4.702;2022-12-24T16:55:48;11.30;99.90
9564;DHT22;4820;50.870;4.702;2022-12-24T16:58:16;11.20;99.90
9564;DHT22;4820;50.870;4.702;2022-12-24T17:00:42;11.20;99.90
9564;DHT22;4820;50.870;4.702;2022-12-24T17:03:09;11.20;99.90
9564;DHT22;4820;50.870;4.702;2022-12-24T17:05:42;11.30;99.90
9564;DHT22;4820;50.870;4.702;2022-12-24T17:08:08;11.30;99.90
9564;DHT22;4820;50.870;4.702;2022-12-24T17:10:35;11.20;99.90
9564;DHT22;4820;50.870;4.702;2022-12-24T17:13:01;11.20;99.90
9564;DHT22;4820;50.870;4.702;2022-12-24T17:15:27;11.20;99.90
9564;DHT22;4820;50.870;4.702;2022-12-24T17:17:53;11.10;99.90
9564;DHT22;4820;50.870;4.702;2022-12-24T17:20:18;11.10;99.90
9564;DHT22;4820;50.870;4.702;2022-12-24T17:22:44;11.10;99.90
9564;DHT22;4820;50.870;4.702;2022-12-24T17:25:12;11.00;99.90
9564;DHT22;4820;50.870;4.702;2022-12-24T17:27:39;11.00;99.90
9564;DHT22;4820;50.870;4.702;2022-12-24T17:30:06;11.00;99.90
9564;DHT22;4820;50.870;4.702;2022-12-24T17:32:32;10.90;99.90
9564;DHT22;4820;50.870;4.702;2022-12-24T17:34:57;10.90;99.90
9564;DHT22;4820;50.870;4.702;2022-12-24T17:37:27;10.80;99.90
9564;DHT22;4820;50.870;4.702;2022-12-24T17:39:53;10.80;99.90
9564;DHT22;4820;50.870;4.702;2022-12-24T17:42:19;10.80;99.90
9564;DHT22;4820;50.870;4.702;2022-12-24T17:44:44;10.80;99.90
9564;DHT22;4820;50.870;4.702;2022-12-24T17:47:10;10.80;99.90
9564;DHT22;4820;50.870;4.702;2022-12-24T17:49:37;10.80;99.90
9564;DHT22;4820;50.870;4.702;2022-12-24T17:52:03;10.70;99.90
9564;DHT22;4820;50.870;4.702;2022-12-24T17:54:29;10.70;99.90
9564;DHT22;4820;50.870;4.702;2022-12-24T17:56:55;10.70;99.90
9564;DHT22;4820;50.870;4.702;2022-12-24T17:59:21;10.60;99.90
9564;DHT22;4820;50.870;4.702;2022-12-24T18:01:47;10.60;99.90
9564;DHT22;4820;50.870;4.702;2022-12-24T18:04:12;10.60;99.90
9564;DHT22;4820;50.870;4.702;2022-12-24T18:06:39;10.60;99.90
9564;DHT22;4820;50.870;4.702;2022-12-24T18:09:05;10.60;99.90
9564;DHT22;4820;50.870;4.702;2022-12-24T18:11:33;10.60;99.90
9564;DHT22;4820;50.870;4.702;2022-12-24T18:14:00;10.60;99.90
9564;DHT22;4820;50.870;4.702;2022-12-24T18:16:38;10.60;99.90